sensor_id;sensor_type;location;lat;lon;timestamp;P1;durP1;ratioP1;P2;durP2;ratioP2
31537;SDS011;18147;51.952;6.146;2023-07-29T00:02:17;21.10;;;15.90;;
31537;SDS011;18147;51.952;6.146;2023-07-29T00:04:43;20.90;;;15.65;;
31537;SDS011;18147;51.952;6.146;2023-07-29T00:07:09;24.52;;;16.38;;
31537;SDS011;18147;51.952;6.146;2023-07-29T00:09:35;19.80;;;15.73;;
31537;SDS011;18147;51.952;6.146;2023-07-29T00:12:01;22.50;;;15.63;;
31537;SDS011;18147;51.952;6.146;2023-07-29T00:14:27;22.80;;;15.70;;
31537;SDS011;18147;51.952;6.146;2023-07-29T00:16:52;19.35;;;15.18;;
31537;SDS011;18147;51.952;6.146;2023-07-29T00:19:18;18.50;;;14.00;;
31537;SDS011;18147;51.952;6.146;2023-07-29T00:21:45;18.08;;;12.68;;
31537;SDS011;18147;51.952;6.146;2023-07-29T00:24:16;15.45;;;12.45;;
31537;SDS011;18147;51.952;6.146;2023-07-29T00:26:45;20.05;;;11.63;;
31537;SDS011;18147;51.952;6.146;2023-07-29T00:29:13;16.55;;;13.23;;
31537;SDS011;18147;51.952;6.146;2023-07-29T00:31:45;18.83;;;13.70;;
31537;SDS011;18147;51.952;6.146;2023-07-29T00:34:13;18.88;;;13.50;;
31537;SDS011;18147;51.952;6.146;2023-07-29T00:36:43;18.10;;;13.55;;
31537;SDS011;18147;51.952;6.146;2023-07-29T00:39:09;19.17;;;14.15;;
31537;SDS011;18147;51.952;6.146;2023-07-29T00:41:43;20.85;;;14.48;;
31537;SDS011;18147;51.952;6.146;2023-07-29T00:44:09;22.50;;;14.73;;
31537;SDS011;18147;51.952;6.146;2023-07-29T00:46:35;18.02;;;13.27;;
31537;SDS011;18147;51.952;6.146;2023-07-29T00:49:03;19.75;;;14.73;;
31537;SDS011;18147;51.952;6.146;2023-07-29T00:51:28;18.50;;;13.57;;
31537;SDS011;18147;51.952;6.146;2023-07-29T00:53:55;15.25;;;12.27;;
31537;SDS011;18147;51.952;6.146;2023-07-29T00:56:21;15.77;;;12.75;;
31537;SDS011;18147;51.952;6.146;2023-07-29T00:58:47;12.48;;;10.65;;
31537;SDS011;18147;51.952;6.146;2023-07-29T01:01:13;18.40;;;15.43;;
31537;SDS011;18147;51.952;6.146;2023-07-29T01:03:43;18.42;;;13.02;;
31537;SDS011;18147;51.952;6.146;2023-07-29T01:09:10;12.48;;;8.57;;
31537;SDS011;18147;51.952;6.146;2023-07-29T01:16:56;13.98;;;10.48;;
31537;SDS011;18147;51.952;6.146;2023-07-29T01:22:38;14.77;;;12.38;;
31537;SDS011;18147;51.952;6.146;2023-07-29T01:25:13;18.60;;;13.20;;
31537;SDS011;18147;51.952;6.146;2023-07-29T01:30:13;21.67;;;15.68;;
31537;SDS011;18147;51.952;6.146;2023-07-29T01:32:49;21.17;;;16.05;;
31537;SDS011;18147;51.952;6.146;2023-07-29T01:35:27;20.00;;;14.15;;
31537;SDS011;18147;51.952;6.146;2023-07-29T01:38:40;18.58;;;13.80;;
31537;SDS011;18147;51.952;6.146;2023-07-29T01:41:15;16.83;;;13.88;;
31537;SDS011;18147;51.952;6.146;2023-07-29T01:43:43;18.63;;;14.20;;
31537;SDS011;18147;51.952;6.146;2023-07-29T01:46:13;20.00;;;15.52;;
31537;SDS011;18147;51.952;6.146;2023-07-29T01:48:42;18.77;;;13.90;;
31537;SDS011;18147;51.952;6.146;2023-07-29T01:51:15;17.63;;;14.90;;
31537;SDS011;18147;51.952;6.146;2023-07-29T01:53:41;21.77;;;15.23;;
31537;SDS011;18147;51.952;6.146;2023-07-29T01:56:09;18.05;;;14.15;;
31537;SDS011;18147;51.952;6.146;2023-07-29T01:58:40;30.38;;;15.68;;
31537;SDS011;18147;51.952;6.146;2023-07-29T02:01:09;16.80;;;12.48;;
31537;SDS011;18147;51.952;6.146;2023-07-29T02:03:38;13.20;;;10.60;;
31537;SDS011;18147;51.952;6.146;2023-07-29T02:06:04;13.13;;;11.63;;
31537;SDS011;18147;51.952;6.146;2023-07-29T02:08:30;17.15;;;12.32;;
31537;SDS011;18147;51.952;6.146;2023-07-29T02:10:56;16.38;;;12.10;;
31537;SDS011;18147;51.952;6.146;2023-07-29T02:13:21;15.38;;;12.50;;
31537;SDS011;18147;51.952;6.146;2023-07-29T02:15:47;16.90;;;12.93;;
31537;SDS011;18147;51.952;6.146;2023-07-29T02:18:13;17.25;;;13.77;;
31537;SDS011;18147;51.952;6.146;2023-07-29T02:20:38;16.13;;;12.80;;
31537;SDS011;18147;51.952;6.146;2023-07-29T02:23:09;21.75;;;14.25;;
31537;SDS011;18147;51.952;6.146;2023-07-29T02:25:35;21.65;;;15.55;;
31537;SDS011;18147;51.952;6.146;2023-07-29T02:28:01;20.65;;;15.90;;
31537;SDS011;18147;51.952;6.146;2023-07-29T02:30:28;28.40;;;18.58;;
31537;SDS011;18147;51.952;6.146;2023-07-29T02:32:54;23.17;;;17.55;;
31537;SDS011;18147;51.952;6.146;2023-07-29T02:35:19;24.73;;;17.67;;
31537;SDS011;18147;51.952;6.146;2023-07-29T02:37:45;24.50;;;17.95;;
31537;SDS011;18147;51.952;6.146;2023-07-29T02:40:13;21.70;;;16.77;;
31537;SDS011;18147;51.952;6.146;2023-07-29T02:42:40;26.73;;;17.77;;
31537;SDS011;18147;51.952;6.146;2023-07-29T02:45:12;23.08;;;18.40;;
31537;SDS011;18147;51.952;6.146;2023-07-29T02:47:38;22.83;;;16.73;;
31537;SDS011;18147;51.952;6.146;2023-07-29T02:50:04;28.58;;;19.67;;
31537;SDS011;18147;51.952;6.146;2023-07-29T02:52:30;25.00;;;19.45;;
31537;SDS011;18147;51.952;6.146;2023-07-29T02:54:56;21.83;;;17.95;;
31537;SDS011;18147;51.952;6.146;2023-07-29T02:57:21;26.52;;;20.80;;
31537;SDS011;18147;51.952;6.146;2023-07-29T02:59:47;29.58;;;18.52;;
31537;SDS011;18147;51.952;6.146;2023-07-29T03:02:13;28.17;;;18.42;;
31537;SDS011;18147;51.952;6.146;2023-07-29T03:04:44;28.58;;;20.98;;
31537;SDS011;18147;51.952;6.146;2023-07-29T03:07:13;28.65;;;19.58;;
31537;SDS011;18147;51.952;6.146;2023-07-29T03:09:43;34.28;;;22.95;;
31537;SDS011;18147;51.952;6.146;2023-07-29T03:12:10;33.10;;;21.73;;
31537;SDS011;18147;51.952;6.146;2023-07-29T03:14:38;29.40;;;20.08;;
31537;SDS011;18147;51.952;6.146;2023-07-29T03:17:04;26.77;;;20.15;;
31537;SDS011;18147;51.952;6.146;2023-07-29T03:19:29;29.77;;;21.13;;
31537;SDS011;18147;51.952;6.146;2023-07-29T03:21:55;33.03;;;22.42;;
31537;SDS011;18147;51.952;6.146;2023-07-29T03:24:21;29.38;;;20.75;;
31537;SDS011;18147;51.952;6.146;2023-07-29T03:26:47;26.45;;;19.13;;
31537;SDS011;18147;51.952;6.146;2023-07-29T03:29:12;29.90;;;20.67;;
31537;SDS011;18147;51.952;6.146;2023-07-29T03:31:38;30.75;;;20.30;;
31537;SDS011;18147;51.952;6.146;2023-07-29T03:34:07;30.60;;;20.70;;
31537;SDS011;18147;51.952;6.146;2023-07-29T03:36:33;29.77;;;19.45;;
31537;SDS011;18147;51.952;6.146;2023-07-29T03:38:59;30.65;;;21.10;;
31537;SDS011;18147;51.952;6.146;2023-07-29T03:41:28;29.80;;;20.05;;
31537;SDS011;18147;51.952;6.146;2023-07-29T03:43:54;28.13;;;19.55;;
31537;SDS011;18147;51.952;6.146;2023-07-29T03:46:19;26.17;;;17.40;;
31537;SDS011;18147;51.952;6.146;2023-07-29T03:48:47;23.58;;;18.15;;
31537;SDS011;18147;51.952;6.146;2023-07-29T03:51:13;27.83;;;18.65;;
31537;SDS011;18147;51.952;6.146;2023-07-29T03:53:38;23.52;;;15.98;;
31537;SDS011;18147;51.952;6.146;2023-07-29T03:56:08;22.13;;;14.60;;
31537;SDS011;18147;51.952;6.146;2023-07-29T03:58:34;22.35;;;16.02;;
31537;SDS011;18147;51.952;6.146;2023-07-29T04:01:00;22.30;;;13.60;;
31537;SDS011;18147;51.952;6.146;2023-07-29T04:03:25;20.80;;;14.18;;
31537;SDS011;18147;51.952;6.146;2023-07-29T04:05:52;20.83;;;13.52;;
31537;SDS011;18147;51.952;6.146;2023-07-29T04:08:18;17.65;;;13.88;;
31537;SDS011;18147;51.952;6.146;2023-07-29T04:10:44;19.67;;;12.65;;
31537;SDS011;18147;51.952;6.146;2023-07-29T04:13:13;20.75;;;13.63;;
31537;SDS011;18147;51.952;6.146;2023-07-29T04:15:38;16.63;;;11.88;;
31537;SDS011;18147;51.952;6.146;2023-07-29T04:18:10;19.70;;;12.65;;
31537;SDS011;18147;51.952;6.146;2023-07-29T04:20:44;16.98;;;11.98;;
31537;SDS011;18147;51.952;6.146;2023-07-29T04:23:14;15.43;;;11.05;;
31537;SDS011;18147;51.952;6.146;2023-07-29T04:25:41;18.48;;;11.65;;
31537;SDS011;18147;51.952;6.146;2023-07-29T04:28:09;15.00;;;9.68;;
31537;SDS011;18147;51.952;6.146;2023-07-29T04:30:43;11.43;;;8.63;;
31537;SDS011;18147;51.952;6.146;2023-07-29T04:33:09;13.05;;;9.50;;
31537;SDS011;18147;51.952;6.146;2023-07-29T04:35:38;11.25;;;8.45;;
31537;SDS011;18147;51.952;6.146;2023-07-29T04:38:03;14.90;;;8.65;;
31537;SDS011;18147;51.952;6.146;2023-07-29T04:40:29;12.85;;;8.20;;
31537;SDS011;18147;51.952;6.146;2023-07-29T04:43:00;12.50;;;8.07;;
31537;SDS011;18147;51.952;6.146;2023-07-29T04:45:29;16.60;;;9.20;;
31537;SDS011;18147;51.952;6.146;2023-07-29T04:47:55;13.05;;;8.82;;
31537;SDS011;18147;51.952;6.146;2023-07-29T04:50:22;12.95;;;10.30;;
31537;SDS011;18147;51.952;6.146;2023-07-29T04:52:47;14.52;;;9.90;;
31537;SDS011;18147;51.952;6.146;2023-07-29T04:55:13;20.13;;;11.60;;
31537;SDS011;18147;51.952;6.146;2023-07-29T04:57:43;14.65;;;10.18;;
31537;SDS011;18147;51.952;6.146;2023-07-29T05:00:09;16.25;;;10.82;;
31537;SDS011;18147;51.952;6.146;2023-07-29T05:02:37;15.18;;;9.77;;
31537;SDS011;18147;51.952;6.146;2023-07-29T05:05:02;17.55;;;10.70;;
31537;SDS011;18147;51.952;6.146;2023-07-29T05:07:29;19.10;;;10.02;;
31537;SDS011;18147;51.952;6.146;2023-07-29T05:09:54;14.07;;;9.50;;
31537;SDS011;18147;51.952;6.146;2023-07-29T05:12:20;13.05;;;8.45;;
31537;SDS011;18147;51.952;6.146;2023-07-29T05:14:45;14.55;;;9.38;;
31537;SDS011;18147;51.952;6.146;2023-07-29T05:17:15;14.95;;;9.50;;
31537;SDS011;18147;51.952;6.146;2023-07-29T05:19:43;10.48;;;7.30;;
31537;SDS011;18147;51.952;6.146;2023-07-29T05:22:09;12.73;;;6.40;;
31537;SDS011;18147;51.952;6.146;2023-07-29T05:24:41;9.80;;;6.63;;
31537;SDS011;18147;51.952;6.146;2023-07-29T05:27:10;7.35;;;5.60;;
31537;SDS011;18147;51.952;6.146;2023-07-29T05:29:48;6.93;;;5.20;;
31537;SDS011;18147;51.952;6.146;2023-07-29T05:32:14;8.10;;;5.30;;
31537;SDS011;18147;51.952;6.146;2023-07-29T05:34:44;7.22;;;4.90;;
31537;SDS011;18147;51.952;6.146;2023-07-29T05:37:10;8.18;;;5.28;;
31537;SDS011;18147;51.952;6.146;2023-07-29T05:39:38;10.10;;;5.00;;
31537;SDS011;18147;51.952;6.146;2023-07-29T05:42:13;8.70;;;4.93;;
31537;SDS011;18147;51.952;6.146;2023-07-29T05:44:43;7.90;;;5.40;;
31537;SDS011;18147;51.952;6.146;2023-07-29T05:47:09;8.70;;;5.18;;
31537;SDS011;18147;51.952;6.146;2023-07-29T05:49:38;7.57;;;4.63;;
31537;SDS011;18147;51.952;6.146;2023-07-29T05:52:05;7.35;;;5.60;;
31537;SDS011;18147;51.952;6.146;2023-07-29T05:54:31;9.38;;;5.65;;
31537;SDS011;18147;51.952;6.146;2023-07-29T05:56:56;9.82;;;5.75;;
31537;SDS011;18147;51.952;6.146;2023-07-29T05:59:22;8.23;;;6.10;;
31537;SDS011;18147;51.952;6.146;2023-07-29T06:01:49;15.52;;;6.80;;
31537;SDS011;18147;51.952;6.146;2023-07-29T06:04:15;7.55;;;5.68;;
31537;SDS011;18147;51.952;6.146;2023-07-29T06:06:41;10.63;;;6.82;;
31537;SDS011;18147;51.952;6.146;2023-07-29T06:09:12;9.55;;;6.40;;
31537;SDS011;18147;51.952;6.146;2023-07-29T06:11:38;9.57;;;6.22;;
31537;SDS011;18147;51.952;6.146;2023-07-29T06:14:09;9.23;;;6.00;;
31537;SDS011;18147;51.952;6.146;2023-07-29T06:16:45;9.60;;;6.25;;
31537;SDS011;18147;51.952;6.146;2023-07-29T06:19:15;11.50;;;7.22;;
31537;SDS011;18147;51.952;6.146;2023-07-29T06:21:43;12.15;;;7.07;;
31537;SDS011;18147;51.952;6.146;2023-07-29T06:24:09;11.63;;;6.38;;
31537;SDS011;18147;51.952;6.146;2023-07-29T06:26:43;9.52;;;6.68;;
31537;SDS011;18147;51.952;6.146;2023-07-29T06:29:09;10.00;;;6.03;;
31537;SDS011;18147;51.952;6.146;2023-07-29T06:31:34;12.18;;;6.35;;
31537;SDS011;18147;51.952;6.146;2023-07-29T06:34:00;13.13;;;6.75;;
31537;SDS011;18147;51.952;6.146;2023-07-29T06:36:25;7.88;;;6.45;;
31537;SDS011;18147;51.952;6.146;2023-07-29T06:38:51;11.10;;;7.13;;
31537;SDS011;18147;51.952;6.146;2023-07-29T06:41:16;9.82;;;7.15;;
31537;SDS011;18147;51.952;6.146;2023-07-29T06:43:43;13.90;;;7.15;;
31537;SDS011;18147;51.952;6.146;2023-07-29T06:46:08;11.13;;;7.07;;
31537;SDS011;18147;51.952;6.146;2023-07-29T06:48:34;10.63;;;6.40;;
31537;SDS011;18147;51.952;6.146;2023-07-29T06:51:00;8.85;;;6.30;;
31537;SDS011;18147;51.952;6.146;2023-07-29T06:53:27;7.93;;;5.45;;
31537;SDS011;18147;51.952;6.146;2023-07-29T06:55:53;10.38;;;6.85;;
31537;SDS011;18147;51.952;6.146;2023-07-29T06:58:19;9.43;;;6.32;;
31537;SDS011;18147;51.952;6.146;2023-07-29T07:00:50;7.93;;;6.03;;
31537;SDS011;18147;51.952;6.146;2023-07-29T07:03:16;11.35;;;6.90;;
31537;SDS011;18147;51.952;6.146;2023-07-29T07:05:44;10.05;;;5.90;;
31537;SDS011;18147;51.952;6.146;2023-07-29T07:08:10;9.65;;;6.22;;
31537;SDS011;18147;51.952;6.146;2023-07-29T07:10:38;10.63;;;6.28;;
31537;SDS011;18147;51.952;6.146;2023-07-29T07:13:15;9.65;;;6.80;;
31537;SDS011;18147;51.952;6.146;2023-07-29T07:15:43;9.48;;;6.07;;
31537;SDS011;18147;51.952;6.146;2023-07-29T07:18:19;9.23;;;6.10;;
31537;SDS011;18147;51.952;6.146;2023-07-29T07:20:50;9.32;;;6.10;;
31537;SDS011;18147;51.952;6.146;2023-07-29T07:23:16;9.73;;;5.80;;
31537;SDS011;18147;51.952;6.146;2023-07-29T07:25:45;7.97;;;5.57;;
31537;SDS011;18147;51.952;6.146;2023-07-29T07:28:15;9.30;;;6.03;;
31537;SDS011;18147;51.952;6.146;2023-07-29T07:30:41;7.00;;;5.40;;
31537;SDS011;18147;51.952;6.146;2023-07-29T07:33:14;8.48;;;5.35;;
31537;SDS011;18147;51.952;6.146;2023-07-29T07:35:46;10.93;;;6.03;;
31537;SDS011;18147;51.952;6.146;2023-07-29T07:38:11;8.75;;;6.30;;
31537;SDS011;18147;51.952;6.146;2023-07-29T07:40:53;8.35;;;5.25;;
31537;SDS011;18147;51.952;6.146;2023-07-29T07:43:21;8.65;;;5.47;;
31537;SDS011;18147;51.952;6.146;2023-07-29T07:45:47;7.63;;;5.50;;
31537;SDS011;18147;51.952;6.146;2023-07-29T07:48:15;11.13;;;5.97;;
31537;SDS011;18147;51.952;6.146;2023-07-29T07:50:44;7.38;;;5.22;;
31537;SDS011;18147;51.952;6.146;2023-07-29T07:53:10;10.55;;;5.40;;
31537;SDS011;18147;51.952;6.146;2023-07-29T07:55:44;11.48;;;6.40;;
31537;SDS011;18147;51.952;6.146;2023-07-29T07:58:13;8.07;;;6.05;;
31537;SDS011;18147;51.952;6.146;2023-07-29T08:00:45;8.18;;;6.15;;
31537;SDS011;18147;51.952;6.146;2023-07-29T08:03:13;10.18;;;7.03;;
31537;SDS011;18147;51.952;6.146;2023-07-29T08:08:19;9.63;;;6.90;;
31537;SDS011;18147;51.952;6.146;2023-07-29T08:10:45;7.35;;;5.45;;
31537;SDS011;18147;51.952;6.146;2023-07-29T08:13:11;9.13;;;5.72;;
31537;SDS011;18147;51.952;6.146;2023-07-29T08:15:51;7.97;;;5.45;;
31537;SDS011;18147;51.952;6.146;2023-07-29T08:18:17;8.85;;;5.50;;
31537;SDS011;18147;51.952;6.146;2023-07-29T08:20:53;8.98;;;6.13;;
31537;SDS011;18147;51.952;6.146;2023-07-29T08:23:29;6.20;;;5.60;;
31537;SDS011;18147;51.952;6.146;2023-07-29T08:25:59;6.78;;;6.05;;
31537;SDS011;18147;51.952;6.146;2023-07-29T08:28:32;7.13;;;5.78;;
31537;SDS011;18147;51.952;6.146;2023-07-29T08:31:02;7.28;;;5.65;;
31537;SDS011;18147;51.952;6.146;2023-07-29T08:33:29;9.57;;;6.05;;
31537;SDS011;18147;51.952;6.146;2023-07-29T08:35:55;11.63;;;6.60;;
31537;SDS011;18147;51.952;6.146;2023-07-29T08:38:21;8.90;;;6.00;;
31537;SDS011;18147;51.952;6.146;2023-07-29T08:46:46;7.38;;;5.40;;
31537;SDS011;18147;51.952;6.146;2023-07-29T08:49:18;12.30;;;5.50;;
31537;SDS011;18147;51.952;6.146;2023-07-29T08:51:45;10.88;;;5.82;;
31537;SDS011;18147;51.952;6.146;2023-07-29T08:54:13;8.27;;;5.57;;
31537;SDS011;18147;51.952;6.146;2023-07-29T08:56:45;6.38;;;5.28;;
31537;SDS011;18147;51.952;6.146;2023-07-29T08:59:13;6.07;;;4.95;;
31537;SDS011;18147;51.952;6.146;2023-07-29T09:01:49;7.60;;;3.67;;
31537;SDS011;18147;51.952;6.146;2023-07-29T09:04:20;7.72;;;3.60;;
31537;SDS011;18147;51.952;6.146;2023-07-29T09:06:48;4.80;;;4.00;;
31537;SDS011;18147;51.952;6.146;2023-07-29T09:09:15;4.00;;;3.55;;
31537;SDS011;18147;51.952;6.146;2023-07-29T09:11:50;6.78;;;4.18;;
31537;SDS011;18147;51.952;6.146;2023-07-29T09:14:15;6.88;;;3.70;;
31537;SDS011;18147;51.952;6.146;2023-07-29T09:16:41;6.43;;;3.78;;
31537;SDS011;18147;51.952;6.146;2023-07-29T09:19:17;5.97;;;3.08;;
31537;SDS011;18147;51.952;6.146;2023-07-29T09:21:42;6.03;;;3.63;;
31537;SDS011;18147;51.952;6.146;2023-07-29T09:26:50;5.22;;;3.72;;
31537;SDS011;18147;51.952;6.146;2023-07-29T09:29:20;9.40;;;3.53;;
31537;SDS011;18147;51.952;6.146;2023-07-29T09:31:47;7.30;;;2.80;;
31537;SDS011;18147;51.952;6.146;2023-07-29T09:34:15;3.15;;;2.50;;
31537;SDS011;18147;51.952;6.146;2023-07-29T09:36:43;2.83;;;2.63;;
31537;SDS011;18147;51.952;6.146;2023-07-29T09:39:15;3.80;;;2.80;;
31537;SDS011;18147;51.952;6.146;2023-07-29T09:41:46;4.03;;;2.60;;
31537;SDS011;18147;51.952;6.146;2023-07-29T09:44:16;4.63;;;3.15;;
31537;SDS011;18147;51.952;6.146;2023-07-29T09:46:46;5.35;;;3.25;;
31537;SDS011;18147;51.952;6.146;2023-07-29T09:49:18;4.72;;;3.33;;
31537;SDS011;18147;51.952;6.146;2023-07-29T09:54:20;4.78;;;2.90;;
31537;SDS011;18147;51.952;6.146;2023-07-29T09:56:46;4.72;;;2.97;;
31537;SDS011;18147;51.952;6.146;2023-07-29T09:59:18;3.55;;;2.80;;
31537;SDS011;18147;51.952;6.146;2023-07-29T10:01:44;5.65;;;3.25;;
31537;SDS011;18147;51.952;6.146;2023-07-29T10:04:13;3.25;;;2.78;;
31537;SDS011;18147;51.952;6.146;2023-07-29T10:06:44;7.47;;;3.05;;
31537;SDS011;18147;51.952;6.146;2023-07-29T10:09:21;3.83;;;3.03;;
31537;SDS011;18147;51.952;6.146;2023-07-29T10:11:48;6.13;;;3.42;;
31537;SDS011;18147;51.952;6.146;2023-07-29T10:14:16;5.07;;;3.05;;
31537;SDS011;18147;51.952;6.146;2023-07-29T10:16:45;4.45;;;3.33;;
31537;SDS011;18147;51.952;6.146;2023-07-29T10:19:15;5.45;;;3.22;;
31537;SDS011;18147;51.952;6.146;2023-07-29T10:21:44;5.40;;;2.53;;
31537;SDS011;18147;51.952;6.146;2023-07-29T10:24:30;4.75;;;3.35;;
31537;SDS011;18147;51.952;6.146;2023-07-29T10:26:58;4.07;;;3.42;;
31537;SDS011;18147;51.952;6.146;2023-07-29T10:29:37;5.82;;;3.50;;
31537;SDS011;18147;51.952;6.146;2023-07-29T10:32:09;4.07;;;2.85;;
31537;SDS011;18147;51.952;6.146;2023-07-29T10:35:02;4.13;;;3.30;;
31537;SDS011;18147;51.952;6.146;2023-07-29T10:37:28;5.00;;;3.17;;
31537;SDS011;18147;51.952;6.146;2023-07-29T10:39:54;5.43;;;2.92;;
31537;SDS011;18147;51.952;6.146;2023-07-29T10:42:21;5.28;;;3.15;;
31537;SDS011;18147;51.952;6.146;2023-07-29T10:44:47;6.38;;;3.90;;
31537;SDS011;18147;51.952;6.146;2023-07-29T10:47:20;3.67;;;3.28;;
31537;SDS011;18147;51.952;6.146;2023-07-29T10:54:55;4.90;;;4.35;;
31537;SDS011;18147;51.952;6.146;2023-07-29T10:57:31;8.32;;;4.10;;
31537;SDS011;18147;51.952;6.146;2023-07-29T11:00:24;5.70;;;4.55;;
31537;SDS011;18147;51.952;6.146;2023-07-29T11:03:01;9.23;;;3.72;;
31537;SDS011;18147;51.952;6.146;2023-07-29T11:05:41;7.07;;;3.60;;
31537;SDS011;18147;51.952;6.146;2023-07-29T11:08:19;4.07;;;3.65;;
31537;SDS011;18147;51.952;6.146;2023-07-29T11:11:05;6.78;;;3.80;;
31537;SDS011;18147;51.952;6.146;2023-07-29T11:13:33;2.97;;;2.78;;
31537;SDS011;18147;51.952;6.146;2023-07-29T11:16:03;4.65;;;2.72;;
31537;SDS011;18147;51.952;6.146;2023-07-29T11:18:31;4.20;;;3.22;;
31537;SDS011;18147;51.952;6.146;2023-07-29T11:20:59;3.92;;;2.90;;
31537;SDS011;18147;51.952;6.146;2023-07-29T11:23:29;4.15;;;2.90;;
31537;SDS011;18147;51.952;6.146;2023-07-29T11:25:59;4.43;;;2.58;;
31537;SDS011;18147;51.952;6.146;2023-07-29T11:28:28;4.10;;;2.40;;
31537;SDS011;18147;51.952;6.146;2023-07-29T11:30:57;3.03;;;2.10;;
31537;SDS011;18147;51.952;6.146;2023-07-29T11:33:24;6.07;;;2.50;;
31537;SDS011;18147;51.952;6.146;2023-07-29T11:35:53;2.63;;;2.30;;
31537;SDS011;18147;51.952;6.146;2023-07-29T11:38:19;2.83;;;2.40;;
31537;SDS011;18147;51.952;6.146;2023-07-29T11:43:21;4.78;;;1.83;;
31537;SDS011;18147;51.952;6.146;2023-07-29T11:45:47;2.35;;;1.92;;
31537;SDS011;18147;51.952;6.146;2023-07-29T11:48:32;2.30;;;2.10;;
31537;SDS011;18147;51.952;6.146;2023-07-29T11:50:58;1.65;;;1.55;;
31537;SDS011;18147;51.952;6.146;2023-07-29T11:53:28;1.92;;;1.55;;
31537;SDS011;18147;51.952;6.146;2023-07-29T11:55:56;3.40;;;1.80;;
31537;SDS011;18147;51.952;6.146;2023-07-29T11:58:22;1.65;;;1.52;;
31537;SDS011;18147;51.952;6.146;2023-07-29T12:00:48;3.80;;;1.83;;
31537;SDS011;18147;51.952;6.146;2023-07-29T12:03:14;4.97;;;2.10;;
31537;SDS011;18147;51.952;6.146;2023-07-29T12:05:45;6.25;;;1.80;;
31537;SDS011;18147;51.952;6.146;2023-07-29T12:08:17;2.03;;;1.70;;
31537;SDS011;18147;51.952;6.146;2023-07-29T12:10:43;4.30;;;2.38;;
31537;SDS011;18147;51.952;6.146;2023-07-29T12:13:12;6.43;;;2.83;;
31537;SDS011;18147;51.952;6.146;2023-07-29T12:15:43;3.25;;;2.60;;
31537;SDS011;18147;51.952;6.146;2023-07-29T12:18:18;8.02;;;3.40;;
31537;SDS011;18147;51.952;6.146;2023-07-29T12:20:43;10.50;;;4.40;;
31537;SDS011;18147;51.952;6.146;2023-07-29T12:23:09;6.85;;;4.72;;
31537;SDS011;18147;51.952;6.146;2023-07-29T12:25:41;7.90;;;4.53;;
31537;SDS011;18147;51.952;6.146;2023-07-29T12:28:10;8.80;;;5.78;;
31537;SDS011;18147;51.952;6.146;2023-07-29T12:30:57;6.07;;;3.40;;
31537;SDS011;18147;51.952;6.146;2023-07-29T12:33:33;4.28;;;3.10;;
31537;SDS011;18147;51.952;6.146;2023-07-29T12:36:00;5.28;;;2.50;;
31537;SDS011;18147;51.952;6.146;2023-07-29T12:38:26;5.78;;;2.60;;
31537;SDS011;18147;51.952;6.146;2023-07-29T12:40:52;5.68;;;2.45;;
31537;SDS011;18147;51.952;6.146;2023-07-29T12:43:18;2.20;;;1.80;;
31537;SDS011;18147;51.952;6.146;2023-07-29T12:45:43;3.97;;;2.20;;
31537;SDS011;18147;51.952;6.146;2023-07-29T12:48:09;4.10;;;2.38;;
31537;SDS011;18147;51.952;6.146;2023-07-29T12:50:46;3.00;;;2.28;;
31537;SDS011;18147;51.952;6.146;2023-07-29T12:53:20;2.95;;;2.03;;
31537;SDS011;18147;51.952;6.146;2023-07-29T12:55:46;6.25;;;2.65;;
31537;SDS011;18147;51.952;6.146;2023-07-29T12:58:14;4.03;;;2.10;;
31537;SDS011;18147;51.952;6.146;2023-07-29T13:00:41;6.72;;;2.20;;
31537;SDS011;18147;51.952;6.146;2023-07-29T13:03:17;4.95;;;1.90;;
31537;SDS011;18147;51.952;6.146;2023-07-29T13:08:09;5.40;;;1.58;;
31537;SDS011;18147;51.952;6.146;2023-07-29T13:10:38;1.60;;;1.25;;
31537;SDS011;18147;51.952;6.146;2023-07-29T13:13:13;2.03;;;1.63;;
31537;SDS011;18147;51.952;6.146;2023-07-29T13:15:45;1.60;;;1.42;;
31537;SDS011;18147;51.952;6.146;2023-07-29T13:18:12;4.22;;;1.90;;
31537;SDS011;18147;51.952;6.146;2023-07-29T13:20:41;1.65;;;1.40;;
31537;SDS011;18147;51.952;6.146;2023-07-29T13:23:16;5.85;;;1.70;;
31537;SDS011;18147;51.952;6.146;2023-07-29T13:25:42;5.30;;;2.25;;
31537;SDS011;18147;51.952;6.146;2023-07-29T13:28:19;6.07;;;2.70;;
31537;SDS011;18147;51.952;6.146;2023-07-29T13:30:45;3.20;;;2.55;;
31537;SDS011;18147;51.952;6.146;2023-07-29T13:33:11;3.38;;;2.45;;
31537;SDS011;18147;51.952;6.146;2023-07-29T13:35:45;3.28;;;2.90;;
31537;SDS011;18147;51.952;6.146;2023-07-29T13:38:17;5.95;;;3.00;;
31537;SDS011;18147;51.952;6.146;2023-07-29T13:40:43;4.60;;;3.10;;
31537;SDS011;18147;51.952;6.146;2023-07-29T13:43:16;5.25;;;3.10;;
31537;SDS011;18147;51.952;6.146;2023-07-29T13:45:46;3.53;;;2.70;;
31537;SDS011;18147;51.952;6.146;2023-07-29T13:48:14;3.50;;;2.97;;
31537;SDS011;18147;51.952;6.146;2023-07-29T13:50:43;3.58;;;3.00;;
31537;SDS011;18147;51.952;6.146;2023-07-29T13:53:09;5.30;;;2.90;;
31537;SDS011;18147;51.952;6.146;2023-07-29T13:55:38;2.45;;;1.95;;
31537;SDS011;18147;51.952;6.146;2023-07-29T13:58:04;4.72;;;2.50;;
31537;SDS011;18147;51.952;6.146;2023-07-29T14:00:29;2.60;;;2.40;;
31537;SDS011;18147;51.952;6.146;2023-07-29T14:02:55;2.65;;;2.45;;
31537;SDS011;18147;51.952;6.146;2023-07-29T14:05:20;3.30;;;2.42;;
31537;SDS011;18147;51.952;6.146;2023-07-29T14:07:46;2.83;;;2.45;;
31537;SDS011;18147;51.952;6.146;2023-07-29T14:10:13;2.25;;;2.05;;
31537;SDS011;18147;51.952;6.146;2023-07-29T14:15:09;4.60;;;2.08;;
31537;SDS011;18147;51.952;6.146;2023-07-29T14:17:34;2.28;;;1.70;;
31537;SDS011;18147;51.952;6.146;2023-07-29T14:20:00;2.10;;;2.00;;
31537;SDS011;18147;51.952;6.146;2023-07-29T14:22:26;2.03;;;1.65;;
31537;SDS011;18147;51.952;6.146;2023-07-29T14:24:52;4.15;;;2.22;;
31537;SDS011;18147;51.952;6.146;2023-07-29T14:27:17;3.83;;;2.35;;
31537;SDS011;18147;51.952;6.146;2023-07-29T14:29:46;2.20;;;2.00;;
31537;SDS011;18147;51.952;6.146;2023-07-29T14:32:11;2.42;;;1.85;;
31537;SDS011;18147;51.952;6.146;2023-07-29T14:34:38;2.70;;;2.30;;
31537;SDS011;18147;51.952;6.146;2023-07-29T14:37:04;2.83;;;2.50;;
31537;SDS011;18147;51.952;6.146;2023-07-29T14:39:30;2.40;;;2.20;;
31537;SDS011;18147;51.952;6.146;2023-07-29T14:41:56;3.40;;;2.20;;
31537;SDS011;18147;51.952;6.146;2023-07-29T14:44:21;4.47;;;2.00;;
31537;SDS011;18147;51.952;6.146;2023-07-29T14:46:47;2.60;;;2.35;;
31537;SDS011;18147;51.952;6.146;2023-07-29T14:49:12;3.17;;;2.70;;
31537;SDS011;18147;51.952;6.146;2023-07-29T14:51:38;3.78;;;2.15;;
31537;SDS011;18147;51.952;6.146;2023-07-29T14:54:11;2.50;;;2.30;;
31537;SDS011;18147;51.952;6.146;2023-07-29T14:56:43;3.20;;;2.50;;
31537;SDS011;18147;51.952;6.146;2023-07-29T14:59:10;3.08;;;2.25;;
31537;SDS011;18147;51.952;6.146;2023-07-29T15:01:44;5.83;;;2.80;;
31537;SDS011;18147;51.952;6.146;2023-07-29T15:04:09;3.30;;;2.53;;
31537;SDS011;18147;51.952;6.146;2023-07-29T15:06:38;2.97;;;2.35;;
31537;SDS011;18147;51.952;6.146;2023-07-29T15:09:04;2.40;;;2.25;;
31537;SDS011;18147;51.952;6.146;2023-07-29T15:11:31;2.30;;;2.03;;
31537;SDS011;18147;51.952;6.146;2023-07-29T15:14:00;2.85;;;2.20;;
31537;SDS011;18147;51.952;6.146;2023-07-29T15:16:26;3.17;;;2.30;;
31537;SDS011;18147;51.952;6.146;2023-07-29T15:18:51;2.90;;;2.35;;
31537;SDS011;18147;51.952;6.146;2023-07-29T15:21:17;2.92;;;2.35;;
31537;SDS011;18147;51.952;6.146;2023-07-29T15:23:43;5.13;;;2.88;;
31537;SDS011;18147;51.952;6.146;2023-07-29T15:26:09;2.60;;;2.33;;
31537;SDS011;18147;51.952;6.146;2023-07-29T15:28:35;2.33;;;1.90;;